Time;durP1;ratioP1;P1;durP2;ratioP2;P2;SDS_P1;SDS_P2;PMS_P1;PMS_P2;Temp;Humidity;BMP_temperature;BMP_pressure;BME280_temperature;BME280_humidity;BME280_pressure;Samples;Min_cycle;Max_cycle;Signal;HPM_P1;HPM_P2
2023/05/30 00:01:49;;;;;;;6.53;2.40;;;17.40;60.00;;;;;;5074522;28;20496;-72
2023/05/30 00:04:17;;;;;;;5.75;2.22;;;17.40;60.20;;;;;;5076297;28;20056;-74
2023/05/30 00:06:44;;;;;;;5.05;2.38;;;17.40;60.30;;;;;;5074065;28;20044;-64
2023/05/30 00:09:11;;;;;;;6.03;2.53;;;17.30;60.50;;;;;;5075185;28;20044;-64
2023/05/30 00:11:39;;;;;;;5.05;2.13;;;17.30;60.70;;;;;;5070570;28;20047;-68
2023/05/30 00:14:06;;;;;;;6.22;2.40;;;17.20;60.90;;;;;;5076900;28;20052;-68
2023/05/30 00:16:34;;;;;;;6.38;2.33;;;17.10;61.10;;;;;;5071652;28;20052;-69
2023/05/30 00:19:04;;;;;;;6.15;2.17;;;17.10;61.20;;;;;;5071280;28;20072;-69
2023/05/30 00:21:33;;;;;;;6.72;2.58;;;17.00;61.30;;;;;;5071177;28;20048;-64
2023/05/30 00:24:00;;;;;;;6.30;2.27;;;17.00;61.60;;;;;;5070201;28;20110;-65
2023/05/30 00:26:27;;;;;;;6.63;2.35;;;17.00;61.60;;;;;;5068834;28;21107;-73
2023/05/30 00:28:54;;;;;;;5.22;2.50;;;16.90;61.80;;;;;;5068977;28;20056;-74
2023/05/30 00:31:21;;;;;;;4.88;2.17;;;16.90;61.90;;;;;;5072783;28;20047;-62
2023/05/30 00:33:48;;;;;;;6.72;2.65;;;16.80;62.20;;;;;;5065560;28;20502;-61
2023/05/30 00:36:17;;;;;;;5.10;2.20;;;16.80;62.30;;;;;;5072478;28;20045;-68
2023/05/30 00:38:45;;;;;;;7.82;2.50;;;16.70;62.20;;;;;;5053544;28;20041;-69
2023/05/30 00:41:12;;;;;;;5.13;2.33;;;16.70;62.30;;;;;;5069467;28;20052;-69
2023/05/30 00:43:39;;;;;;;5.75;2.50;;;16.60;62.50;;;;;;5072913;28;20040;-69
2023/05/30 00:46:10;;;;;;;6.88;2.78;;;16.60;62.70;;;;;;5066331;28;20048;-67
2023/05/30 00:48:37;;;;;;;8.43;2.70;;;16.60;63.00;;;;;;5071502;28;20048;-69
2023/05/30 00:51:08;;;;;;;6.63;2.92;;;16.50;62.90;;;;;;5069932;28;20056;-69
2023/05/30 00:53:35;;;;;;;5.93;2.63;;;16.50;62.90;;;;;;5064440;28;20511;-69
2023/05/30 00:56:04;;;;;;;5.95;2.90;;;16.50;63.10;;;;;;5068171;28;20044;-68
2023/05/30 00:58:31;;;;;;;5.32;2.38;;;16.40;63.30;;;;;;5069562;28;20106;-68
2023/05/30 01:00:59;;;;;;;6.03;2.55;;;16.30;63.70;;;;;;5066420;28;20056;-62
2023/05/30 01:03:32;;;;;;;7.32;2.40;;;16.30;63.90;;;;;;5072342;28;20090;-62
2023/05/30 01:06:01;;;;;;;6.55;2.28;;;16.30;64.00;;;;;;5075503;28;20148;-69
2023/05/30 01:08:28;;;;;;;6.18;2.50;;;16.20;64.20;;;;;;5076518;28;20056;-69
2023/05/30 01:11:01;;;;;;;6.15;2.50;;;16.10;64.50;;;;;;5073578;28;20105;-62
2023/05/30 01:13:36;;;;;;;6.97;2.40;;;16.10;64.70;;;;;;5077476;28;20079;-61
2023/05/30 01:16:09;;;;;;;6.93;2.75;;;16.00;64.80;;;;;;5057868;28;20041;-68
2023/05/30 01:18:42;;;;;;;6.85;2.65;;;16.10;64.60;;;;;;5073311;28;20040;-70
2023/05/30 01:21:10;;;;;;;7.07;2.60;;;16.10;64.40;;;;;;5070490;28;20049;-72
2023/05/30 01:23:49;;;;;;;6.60;2.58;;;16.00;64.40;;;;;;5074982;28;20047;-74
2023/05/30 01:26:32;;;;;;;6.63;2.72;;;15.90;64.80;;;;;;5071937;28;20391;-64
2023/05/30 01:29:02;;;;;;;7.90;2.90;;;15.90;64.60;;;;;;5075136;28;20521;-64
2023/05/30 01:31:32;;;;;;;10.20;2.70;;;15.90;64.50;;;;;;5055934;28;20044;-73
2023/05/30 01:34:02;;;;;;;5.65;2.45;;;15.80;64.50;;;;;;5076378;28;20041;-74
2023/05/30 01:36:29;;;;;;;8.05;2.47;;;15.70;64.70;;;;;;5064211;28;20421;-73
2023/05/30 01:38:59;;;;;;;7.22;2.92;;;15.70;64.90;;;;;;5073514;28;20488;-72
2023/05/30 01:41:34;;;;;;;6.72;2.00;;;15.70;64.90;;;;;;5072894;28;20119;-69
2023/05/30 01:44:12;;;;;;;6.70;2.60;;;15.70;64.90;;;;;;5074955;28;20040;-67
2023/05/30 01:46:51;;;;;;;6.35;2.60;;;15.60;65.00;;;;;;5070733;28;20931;-61
2023/05/30 01:49:23;;;;;;;6.20;2.33;;;15.60;65.20;;;;;;5076050;28;20116;-60
2023/05/30 01:51:57;;;;;;;7.50;2.95;;;15.60;65.40;;;;;;5074783;28;20393;-73
2023/05/30 01:54:26;;;;;;;7.22;2.78;;;15.50;65.50;;;;;;5058389;28;20070;-77
2023/05/30 01:57:01;;;;;;;7.00;2.50;;;15.50;65.60;;;;;;5078728;28;20044;-64
2023/05/30 01:59:30;;;;;;;5.53;2.58;;;15.40;65.60;;;;;;5072303;28;20492;-63
2023/05/30 02:01:58;;;;;;;7.38;2.70;;;15.50;65.60;;;;;;5058518;28;20905;-60
2023/05/30 02:04:25;;;;;;;7.55;2.53;;;15.40;65.90;;;;;;5077304;28;20044;-59
2023/05/30 02:06:52;;;;;;;7.35;2.80;;;15.30;66.20;;;;;;5057869;28;20044;-75
2023/05/30 02:09:19;;;;;;;7.22;2.42;;;15.30;65.90;;;;;;5061527;28;20048;-75
2023/05/30 02:11:46;;;;;;;7.45;2.90;;;15.30;65.60;;;;;;5060337;28;20432;-78
2023/05/30 02:14:13;;;;;;;6.63;2.72;;;15.40;65.40;;;;;;5075303;28;20045;-77
2023/05/30 02:16:41;;;;;;;7.05;3.00;;;15.30;65.40;;;;;;5055528;28;20056;-68
2023/05/30 02:19:16;;;;;;;7.15;2.85;;;15.30;65.30;;;;;;5057582;28;20065;-68
2023/05/30 02:21:43;;;;;;;5.88;2.80;;;15.30;65.10;;;;;;5077578;28;20040;-73
2023/05/30 02:24:12;;;;;;;8.55;2.80;;;15.20;65.30;;;;;;5077110;28;20074;-74
2023/05/30 02:26:39;;;;;;;6.80;3.03;;;15.20;65.40;;;;;;5056180;28;20138;-63
2023/05/30 02:29:06;;;;;;;7.70;2.47;;;15.20;65.60;;;;;;5070715;28;20127;-63
2023/05/30 02:31:33;;;;;;;5.55;2.53;;;15.10;65.80;;;;;;5069618;28;20117;-72
2023/05/30 02:34:02;;;;;;;7.63;2.60;;;15.10;65.80;;;;;;5065160;28;20049;-72
2023/05/30 02:36:30;;;;;;;4.63;2.22;;;15.00;66.10;;;;;;5054740;28;20109;-74
2023/05/30 02:38:57;;;;;;;8.82;2.28;;;14.90;66.30;;;;;;5075645;28;20532;-73
2023/05/30 02:41:25;;;;;;;6.72;2.58;;;14.90;66.10;;;;;;5062095;28;20083;-61
2023/05/30 02:43:52;;;;;;;6.43;2.58;;;14.90;66.00;;;;;;5063465;28;20040;-61
2023/05/30 02:46:19;;;;;;;7.13;2.55;;;14.80;66.20;;;;;;5077822;28;20055;-64
2023/05/30 02:48:48;;;;;;;8.23;2.67;;;14.80;66.30;;;;;;5060909;28;20051;-63
2023/05/30 02:51:16;;;;;;;6.82;2.53;;;14.70;66.30;;;;;;5055604;28;20483;-72
2023/05/30 02:53:44;;;;;;;6.63;2.45;;;14.70;66.20;;;;;;5056567;28;20946;-73
2023/05/30 02:56:11;;;;;;;7.45;2.58;;;14.70;65.80;;;;;;5075705;28;20130;-71
2023/05/30 02:58:49;;;;;;;6.28;2.63;;;14.70;65.50;;;;;;5051995;28;20141;-72
2023/05/30 03:01:38;;;;;;;8.98;2.30;;;14.70;65.30;;;;;;5057031;28;20054;-71
2023/05/30 03:04:05;;;;;;;8.13;2.88;;;14.70;65.20;;;;;;5058197;28;20090;-72
2023/05/30 03:06:49;;;;;;;7.20;2.65;;;14.70;65.20;;;;;;5059171;28;20052;-72
2023/05/30 03:09:19;;;;;;;7.88;2.75;;;14.60;65.40;;;;;;5060656;28;20058;-72
2023/05/30 03:11:46;;;;;;;7.95;2.65;;;14.60;65.30;;;;;;5078072;28;20135;-73
2023/05/30 03:14:13;;;;;;;6.38;2.17;;;14.60;65.50;;;;;;5073729;28;20139;-71
2023/05/30 03:16:40;;;;;;;7.50;2.40;;;14.50;65.80;;;;;;5076088;28;20538;-68
2023/05/30 03:19:09;;;;;;;8.77;3.05;;;14.50;65.90;;;;;;5061496;28;20142;-67
2023/05/30 03:21:38;;;;;;;6.15;2.15;;;14.50;66.20;;;;;;5075613;28;20049;-76
2023/05/30 03:24:08;;;;;;;7.07;2.83;;;14.40;66.50;;;;;;5057136;28;20408;-75
2023/05/30 03:26:41;;;;;;;5.93;2.10;;;14.30;66.50;;;;;;5054030;28;20072;-76
2023/05/30 03:29:08;;;;;;;7.18;2.50;;;14.30;66.60;;;;;;5059633;28;20051;-74
2023/05/30 03:31:36;;;;;;;6.63;2.30;;;14.30;66.80;;;;;;5053719;28;20051;-69
2023/05/30 03:34:04;;;;;;;7.30;2.13;;;14.20;66.80;;;;;;5060416;28;20044;-68
2023/05/30 03:36:31;;;;;;;6.07;2.35;;;14.20;66.90;;;;;;5055918;28;20048;-73
2023/05/30 03:38:59;;;;;;;5.57;2.25;;;14.20;66.90;;;;;;5056306;28;20044;-73
2023/05/30 03:41:27;;;;;;;5.47;2.28;;;14.20;67.10;;;;;;5071614;28;20059;-62
2023/05/30 03:43:54;;;;;;;5.15;2.15;;;14.20;67.00;;;;;;5073558;28;20062;-63
2023/05/30 03:46:22;;;;;;;8.48;2.50;;;14.20;66.90;;;;;;5073906;28;20494;-61
2023/05/30 03:48:50;;;;;;;6.03;2.58;;;14.20;67.20;;;;;;5069426;28;20047;-62
2023/05/30 03:51:17;;;;;;;7.63;2.40;;;14.20;67.20;;;;;;5075370;28;20049;-76
2023/05/30 03:53:44;;;;;;;6.47;2.17;;;14.20;67.40;;;;;;5057371;28;20044;-77
2023/05/30 03:56:11;;;;;;;8.80;2.53;;;14.10;67.50;;;;;;5077007;28;20047;-69
2023/05/30 03:58:41;;;;;;;7.68;2.38;;;14.20;67.50;;;;;;5048740;28;20056;-69
2023/05/30 04:01:08;;;;;;;7.25;2.33;;;14.20;67.30;;;;;;5061230;28;20044;-72
2023/05/30 04:03:37;;;;;;;6.13;2.08;;;14.20;67.20;;;;;;5077125;28;20059;-73
2023/05/30 04:06:05;;;;;;;7.97;2.50;;;14.20;67.20;;;;;;5055730;28;20596;-68
2023/05/30 04:08:32;;;;;;;7.07;2.42;;;14.10;67.40;;;;;;5074421;28;20468;-69
2023/05/30 04:10:59;;;;;;;6.38;2.22;;;14.10;67.50;;;;;;5068108;28;20098;-74
2023/05/30 04:13:26;;;;;;;7.75;2.60;;;14.10;67.60;;;;;;5047717;28;21978;-72
2023/05/30 04:16:05;;;;;;;5.78;2.55;;;14.20;67.60;;;;;;5072856;28;20044;-77
2023/05/30 04:18:32;;;;;;;7.72;2.33;;;14.10;67.60;;;;;;5073084;28;20044;-76
2023/05/30 04:20:59;;;;;;;8.60;2.47;;;14.10;67.70;;;;;;5073725;28;20058;-77
2023/05/30 04:23:26;;;;;;;7.45;2.83;;;14.10;67.70;;;;;;5054278;28;20071;-77
2023/05/30 04:25:53;;;;;;;6.45;2.53;;;14.20;67.40;;;;;;5074565;28;20044;-68
2023/05/30 04:28:21;;;;;;;8.48;2.70;;;14.20;67.40;;;;;;5068629;28;20306;-69
2023/05/30 04:30:49;;;;;;;8.77;2.83;;;14.20;66.90;;;;;;5072769;28;20059;-68
2023/05/30 04:33:20;;;;;;;7.53;2.45;;;14.30;66.90;;;;;;5048377;28;20044;-69
2023/05/30 04:35:48;;;;;;;7.32;2.50;;;14.40;66.50;;;;;;5058240;28;20052;-69
2023/05/30 04:38:16;;;;;;;8.32;2.58;;;14.40;65.70;;;;;;5053375;28;20048;-69
2023/05/30 04:40:43;;;;;;;8.10;2.72;;;14.40;65.80;;;;;;5055459;28;20072;-72
2023/05/30 04:43:10;;;;;;;7.32;2.33;;;14.40;65.90;;;;;;5070065;28;20126;-72
2023/05/30 04:45:38;;;;;;;5.68;2.40;;;14.40;65.90;;;;;;5059200;28;20081;-68
2023/05/30 04:48:07;;;;;;;8.30;2.58;;;14.50;65.50;;;;;;5074018;28;20495;-69
2023/05/30 04:50:37;;;;;;;8.38;2.80;;;14.50;65.20;;;;;;5074375;28;20045;-68
2023/05/30 04:53:04;;;;;;;6.90;2.15;;;14.60;64.80;;;;;;5051899;28;20544;-68
2023/05/30 04:55:31;;;;;;;9.70;2.65;;;14.60;64.90;;;;;;5070709;28;20150;-68
2023/05/30 04:57:58;;;;;;;6.35;2.45;;;14.60;65.20;;;;;;5070336;28;20475;-67
2023/05/30 05:00:24;;;;;;;7.78;2.30;;;14.50;65.10;;;;;;5069659;28;20071;-68
2023/05/30 05:02:52;;;;;;;7.75;2.38;;;14.60;65.00;;;;;;5077941;28;20047;-67
2023/05/30 05:05:19;;;;;;;7.55;2.40;;;14.60;64.90;;;;;;5072136;28;20086;-69
2023/05/30 05:07:47;;;;;;;8.70;2.65;;;14.60;65.00;;;;;;5070881;28;20528;-69
2023/05/30 05:10:14;;;;;;;6.25;2.22;;;14.60;64.80;;;;;;5075812;28;20052;-68
2023/05/30 05:12:41;;;;;;;12.35;2.90;;;14.60;64.70;;;;;;5071250;28;20377;-71
2023/05/30 05:15:09;;;;;;;9.55;2.47;;;14.70;64.40;;;;;;5070230;28;20044;-71
2023/05/30 05:17:36;;;;;;;9.40;2.40;;;14.80;64.30;;;;;;5077391;28;20059;-72
2023/05/30 05:20:05;;;;;;;8.10;2.45;;;14.80;64.10;;;;;;5072377;28;20048;-72
2023/05/30 05:22:33;;;;;;;6.30;2.42;;;14.80;63.80;;;;;;5079393;28;20458;-72
2023/05/30 05:25:01;;;;;;;7.95;2.50;;;14.90;63.90;;;;;;5076106;28;20040;-72
2023/05/30 05:27:28;;;;;;;6.00;2.35;;;14.90;63.40;;;;;;5076346;28;20064;-72
2023/05/30 05:29:55;;;;;;;8.30;2.10;;;15.00;63.00;;;;;;5076032;28;20040;-72
2023/05/30 05:32:22;;;;;;;7.32;2.28;;;15.00;62.80;;;;;;5078730;28;20117;-72
2023/05/30 05:34:49;;;;;;;9.57;2.88;;;15.10;62.60;;;;;;5075358;28;20131;-73
2023/05/30 05:37:16;;;;;;;7.00;2.58;;;15.10;62.20;;;;;;5076273;28;20040;-71
2023/05/30 05:39:43;;;;;;;7.28;2.28;;;15.20;62.40;;;;;;5077470;28;20401;-72
2023/05/30 05:42:11;;;;;;;6.07;2.28;;;15.20;62.00;;;;;;5075149;28;20055;-71
2023/05/30 05:44:38;;;;;;;8.40;2.35;;;15.10;61.80;;;;;;5074663;28;20521;-72
2023/05/30 05:47:07;;;;;;;7.05;2.35;;;15.10;61.70;;;;;;5079524;28;20057;-76
2023/05/30 05:49:34;;;;;;;7.13;2.28;;;15.10;61.60;;;;;;5075908;28;20125;-75
2023/05/30 05:52:01;;;;;;;7.90;2.22;;;15.20;61.50;;;;;;5078806;28;20476;-62
2023/05/30 05:54:28;;;;;;;9.55;2.28;;;15.20;61.40;;;;;;5078415;28;20050;-62
2023/05/30 05:56:55;;;;;;;7.63;2.60;;;15.20;61.10;;;;;;5077203;28;20041;-70
2023/05/30 05:59:24;;;;;;;9.57;3.22;;;15.30;61.20;;;;;;5072263;28;20036;-71
2023/05/30 06:01:52;;;;;;;9.80;4.40;;;15.30;61.30;;;;;;5075584;28;20053;-70
2023/05/30 06:04:19;;;;;;;11.77;3.35;;;15.40;61.20;;;;;;5076160;28;20048;-72
2023/05/30 06:06:46;;;;;;;8.98;3.42;;;15.40;61.40;;;;;;5073922;28;20051;-71
2023/05/30 06:09:15;;;;;;;11.10;3.58;;;15.50;61.20;;;;;;5077973;28;20144;-69
2023/05/30 06:11:45;;;;;;;8.98;2.97;;;15.50;60.70;;;;;;5074658;28;20555;-70
2023/05/30 06:14:12;;;;;;;7.15;2.80;;;15.60;60.90;;;;;;5074600;28;20056;-69
2023/05/30 06:16:41;;;;;;;9.50;3.30;;;15.60;60.50;;;;;;5075050;28;20044;-70
2023/05/30 06:19:07;;;;;;;8.50;2.95;;;15.60;60.20;;;;;;5075868;28;20080;-68
2023/05/30 06:21:35;;;;;;;10.27;3.10;;;15.60;60.10;;;;;;5070348;28;20522;-71
2023/05/30 06:24:03;;;;;;;8.07;3.30;;;15.60;59.70;;;;;;5076243;28;20210;-70
2023/05/30 06:26:30;;;;;;;9.65;3.17;;;15.70;59.90;;;;;;5077077;28;20138;-71
2023/05/30 06:28:57;;;;;;;7.53;2.55;;;15.70;59.60;;;;;;5071469;28;20049;-71
2023/05/30 06:31:24;;;;;;;7.32;2.42;;;15.80;59.30;;;;;;5073206;28;20492;-71
2023/05/30 06:33:53;;;;;;;6.32;2.30;;;15.90;59.30;;;;;;5074143;28;20838;-71
2023/05/30 06:36:20;;;;;;;7.88;2.53;;;16.10;59.10;;;;;;5074599;28;20458;-71
2023/05/30 06:38:47;;;;;;;9.65;2.50;;;16.20;58.50;;;;;;5070590;28;20068;-70
2023/05/30 06:41:14;;;;;;;7.28;2.50;;;16.30;57.90;;;;;;5075191;28;20093;-69
2023/05/30 06:43:41;;;;;;;6.32;2.15;;;16.40;57.60;;;;;;5076666;28;20067;-70
2023/05/30 06:46:08;;;;;;;5.72;2.03;;;16.50;57.20;;;;;;5069880;28;20048;-68
2023/05/30 06:48:35;;;;;;;9.30;2.65;;;16.70;56.80;;;;;;5075035;28;20114;-71
2023/05/30 06:51:05;;;;;;;8.05;2.22;;;16.80;56.30;;;;;;5073017;28;20131;-71
2023/05/30 06:53:32;;;;;;;7.60;2.22;;;16.90;55.40;;;;;;5052388;28;20044;-71
2023/05/30 06:55:59;;;;;;;7.63;2.28;;;17.10;55.10;;;;;;5071844;28;20482;-70
2023/05/30 06:58:26;;;;;;;7.00;2.00;;;17.10;54.20;;;;;;5074514;28;20044;-70
2023/05/30 07:00:53;;;;;;;6.82;2.00;;;17.30;54.60;;;;;;5068047;28;20066;-72
2023/05/30 07:03:20;;;;;;;8.45;1.90;;;17.40;54.20;;;;;;5077584;28;20119;-70
2023/05/30 07:05:47;;;;;;;7.60;2.38;;;17.60;53.90;;;;;;5077739;28;20052;-71
2023/05/30 07:08:16;;;;;;;7.10;2.28;;;17.70;53.30;;;;;;5073756;28;20485;-71
2023/05/30 07:10:43;;;;;;;6.32;1.92;;;17.90;52.40;;;;;;5080105;28;20036;-77
2023/05/30 07:13:10;;;;;;;7.28;2.15;;;18.10;52.40;;;;;;5054508;28;20127;-77
2023/05/30 07:15:37;;;;;;;7.57;1.90;;;18.20;52.10;;;;;;5074064;28;20051;-77
2023/05/30 07:18:04;;;;;;;8.48;1.88;;;18.30;51.80;;;;;;5071343;28;20155;-77
2023/05/30 07:20:31;;;;;;;6.97;2.17;;;18.50;51.50;;;;;;5076817;28;20049;-77
2023/05/30 07:22:58;;;;;;;6.18;2.30;;;18.60;51.60;;;;;;5073771;28;20105;-77
2023/05/30 07:25:26;;;;;;;7.50;2.33;;;18.60;51.80;;;;;;5074425;28;20051;-76
2023/05/30 07:27:53;;;;;;;8.18;2.30;;;18.70;51.70;;;;;;5074214;28;20055;-68
2023/05/30 07:30:21;;;;;;;9.60;2.25;;;18.80;51.00;;;;;;5074458;28;20103;-68
2023/05/30 07:32:48;;;;;;;9.38;2.35;;;18.90;50.60;;;;;;5075053;28;20076;-70
2023/05/30 07:35:15;;;;;;;8.95;2.25;;;19.10;50.50;;;;;;5075666;28;20075;-70
2023/05/30 07:37:43;;;;;;;7.38;2.00;;;19.30;49.50;;;;;;5075229;28;20082;-62
2023/05/30 07:40:12;;;;;;;6.30;2.00;;;19.40;49.00;;;;;;5075429;28;20078;-62
2023/05/30 07:42:40;;;;;;;9.10;2.67;;;19.60;48.90;;;;;;5074323;28;20051;-61
2023/05/30 07:45:08;;;;;;;3.97;1.70;;;19.50;48.60;;;;;;5072014;28;20177;-59
2023/05/30 07:47:36;;;;;;;6.45;2.13;;;19.50;49.00;;;;;;5073242;28;20039;-79
2023/05/30 07:50:03;;;;;;;7.15;1.77;;;19.60;49.00;;;;;;5074908;28;20040;-78
2023/05/30 07:52:30;;;;;;;7.45;2.08;;;19.90;48.90;;;;;;5069917;28;20052;-68
2023/05/30 07:54:56;;;;;;;5.55;2.05;;;19.90;48.20;;;;;;5073857;28;20594;-68
2023/05/30 07:57:23;;;;;;;6.88;2.05;;;20.20;48.20;;;;;;5069336;28;20056;-70
2023/05/30 07:59:52;;;;;;;8.27;2.40;;;20.30;48.00;;;;;;5065614;28;20048;-71
2023/05/30 08:02:20;;;;;;;6.05;1.90;;;20.40;47.40;;;;;;5073863;28;20055;-62
2023/05/30 08:04:48;;;;;;;6.05;2.25;;;20.50;46.90;;;;;;5075690;28;20055;-62
2023/05/30 08:07:15;;;;;;;5.97;1.70;;;20.60;46.50;;;;;;5070194;28;20047;-61
2023/05/30 08:09:42;;;;;;;6.68;1.83;;;20.70;45.70;;;;;;5074430;28;20053;-61
2023/05/30 08:12:17;;;;;;;4.88;1.70;;;20.80;45.70;;;;;;5071899;28;20533;-62
2023/05/30 08:14:44;;;;;;;7.10;2.17;;;20.90;46.50;;;;;;5072109;28;20072;-63
2023/05/30 08:17:13;;;;;;;6.18;1.67;;;21.10;46.50;;;;;;5074165;28;20142;-62
2023/05/30 08:19:40;;;;;;;8.15;2.47;;;21.10;45.00;;;;;;5070418;28;20047;-62
2023/05/30 08:22:07;;;;;;;8.52;2.20;;;21.10;44.60;;;;;;5073550;28;20052;-62
2023/05/30 08:24:35;;;;;;;6.10;1.80;;;21.30;44.40;;;;;;5071481;28;20555;-60
2023/05/30 08:27:02;;;;;;;6.60;1.80;;;21.30;44.80;;;;;;5072310;28;20049;-63
2023/05/30 08:29:29;;;;;;;5.85;1.85;;;21.30;45.00;;;;;;5068359;28;20072;-62
2023/05/30 08:31:56;;;;;;;6.22;1.77;;;21.40;44.90;;;;;;5070085;28;20527;-63
2023/05/30 08:34:24;;;;;;;4.65;1.80;;;21.60;45.00;;;;;;5075676;28;20114;-63
2023/05/30 08:36:52;;;;;;;6.97;1.83;;;21.70;44.20;;;;;;5071582;28;20049;-61
2023/05/30 08:39:19;;;;;;;5.43;1.73;;;21.80;43.90;;;;;;5073016;28;20033;-63
2023/05/30 08:41:46;;;;;;;6.15;2.03;;;21.90;44.10;;;;;;5072452;28;20051;-63
2023/05/30 08:44:13;;;;;;;5.85;1.52;;;22.10;44.30;;;;;;5072529;28;20044;-63
2023/05/30 08:46:42;;;;;;;5.60;2.17;;;22.20;42.90;;;;;;5069601;28;20048;-62
2023/05/30 08:49:13;;;;;;;5.82;1.83;;;22.30;42.70;;;;;;5069451;28;20048;-62
2023/05/30 08:51:43;;;;;;;6.03;2.10;;;22.40;42.00;;;;;;5071559;28;20040;-62
2023/05/30 08:54:16;;;;;;;7.32;1.70;;;22.50;42.30;;;;;;5071549;28;20043;-62
2023/05/30 08:56:47;;;;;;;7.30;2.05;;;22.50;41.40;;;;;;5077529;28;20060;-62
2023/05/30 08:59:16;;;;;;;5.85;1.88;;;22.70;40.50;;;;;;5063231;28;20504;-61
2023/05/30 09:01:44;;;;;;;5.60;2.08;;;22.60;40.90;;;;;;5075818;28;20044;-62
2023/05/30 09:04:14;;;;;;;5.60;1.80;;;22.70;40.70;;;;;;5079013;28;20071;-61
2023/05/30 09:06:44;;;;;;;5.57;1.80;;;22.80;39.70;;;;;;5071513;28;20051;-62
2023/05/30 09:09:13;;;;;;;5.07;1.55;;;23.00;39.20;;;;;;5080933;28;20054;-62
2023/05/30 09:11:40;;;;;;;5.85;2.00;;;23.10;38.40;;;;;;5076805;28;20045;-62
2023/05/30 09:14:08;;;;;;;5.38;1.77;;;23.10;38.00;;;;;;5074616;28;20054;-61
2023/05/30 09:16:35;;;;;;;7.80;2.10;;;23.10;37.90;;;;;;5071469;28;20052;-61
2023/05/30 09:19:02;;;;;;;9.18;2.00;;;23.20;37.80;;;;;;5070938;28;20082;-62
2023/05/30 09:21:31;;;;;;;7.03;1.98;;;23.20;38.40;;;;;;5078736;28;20097;-61
2023/05/30 09:24:05;;;;;;;5.53;1.63;;;23.30;38.30;;;;;;5075783;28;20076;-62
2023/05/30 09:26:32;;;;;;;5.32;1.90;;;23.40;38.40;;;;;;5075031;28;20052;-62
2023/05/30 09:29:08;;;;;;;6.15;1.88;;;23.40;37.90;;;;;;5072105;28;20075;-62
2023/05/30 09:31:37;;;;;;;5.25;1.83;;;23.60;38.30;;;;;;5071779;28;20040;-61
2023/05/30 09:34:05;;;;;;;4.35;1.70;;;23.70;38.20;;;;;;5079011;28;20044;-62
2023/05/30 09:36:32;;;;;;;6.53;1.80;;;23.70;37.90;;;;;;5076440;28;21850;-61
2023/05/30 09:39:02;;;;;;;6.25;1.77;;;23.80;37.30;;;;;;5078393;28;20048;-62
2023/05/30 09:41:30;;;;;;;6.15;1.90;;;23.80;37.30;;;;;;5077739;28;20420;-61
2023/05/30 09:43:57;;;;;;;4.63;1.57;;;23.80;37.00;;;;;;5075302;28;20051;-61
2023/05/30 09:46:26;;;;;;;4.22;1.58;;;23.90;36.70;;;;;;5069219;28;20119;-61
2023/05/30 09:48:54;;;;;;;5.82;1.55;;;23.90;36.50;;;;;;5073055;28;20051;-61
2023/05/30 09:51:22;;;;;;;8.20;2.08;;;24.00;37.00;;;;;;5055213;28;20121;-62
2023/05/30 09:53:57;;;;;;;4.33;1.67;;;24.00;36.50;;;;;;5074510;28;20515;-61
2023/05/30 09:56:36;;;;;;;4.63;1.60;;;24.10;36.30;;;;;;5074399;28;20487;-62
2023/05/30 09:59:06;;;;;;;5.15;1.92;;;24.20;36.70;;;;;;5073292;28;20566;-61
2023/05/30 10:01:40;;;;;;;5.78;2.10;;;24.30;36.60;;;;;;5073538;28;20098;-62
2023/05/30 10:04:12;;;;;;;4.72;1.80;;;24.40;36.80;;;;;;5074458;28;20056;-61
2023/05/30 10:06:41;;;;;;;4.75;1.67;;;24.40;36.30;;;;;;5072839;28;20048;-62
2023/05/30 10:09:09;;;;;;;5.55;1.85;;;24.50;35.40;;;;;;5077617;28;20528;-63
2023/05/30 10:11:39;;;;;;;6.03;2.13;;;24.50;35.90;;;;;;5076660;28;20090;-61
2023/05/30 10:14:06;;;;;;;7.22;1.92;;;24.60;35.70;;;;;;5070644;28;20479;-61
2023/05/30 10:16:35;;;;;;;5.47;1.85;;;24.60;35.40;;;;;;5073185;28;20059;-63
2023/05/30 10:19:07;;;;;;;7.57;2.17;;;24.70;35.40;;;;;;5067234;28;20131;-63
2023/05/30 10:21:37;;;;;;;5.13;1.92;;;24.70;35.40;;;;;;5074910;28;20508;-62
2023/05/30 10:24:05;;;;;;;4.78;1.75;;;24.70;35.50;;;;;;5076899;28;20047;-61
2023/05/30 10:26:36;;;;;;;5.70;1.88;;;24.70;35.50;;;;;;5072856;28;20040;-62
2023/05/30 10:29:08;;;;;;;4.85;1.73;;;24.80;35.60;;;;;;5072466;28;20219;-61
2023/05/30 10:31:36;;;;;;;6.15;1.90;;;24.90;35.70;;;;;;5073050;28;20071;-61
2023/05/30 10:34:06;;;;;;;5.88;1.80;;;24.90;35.00;;;;;;5077267;28;20052;-61
2023/05/30 10:36:41;;;;;;;8.20;1.73;;;25.00;34.60;;;;;;5064354;28;20044;-62
2023/05/30 10:39:21;;;;;;;6.20;1.88;;;25.10;34.90;;;;;;5056046;28;20431;-61
2023/05/30 10:41:54;;;;;;;4.93;1.67;;;25.10;34.90;;;;;;5067029;28;20040;-62
2023/05/30 10:44:42;;;;;;;6.03;1.75;;;25.30;34.50;;;;;;5077346;28;20066;-62
2023/05/30 10:47:22;;;;;;;5.30;1.75;;;25.30;35.00;;;;;;5077984;28;20044;-63
2023/05/30 10:49:58;;;;;;;5.10;1.67;;;25.30;34.30;;;;;;5070606;28;20044;-63
2023/05/30 10:52:32;;;;;;;7.63;2.15;;;25.30;34.10;;;;;;5059531;28;20041;-62
2023/05/30 10:55:00;;;;;;;6.22;1.65;;;25.30;33.70;;;;;;5072770;28;20102;-61
2023/05/30 10:57:32;;;;;;;5.60;1.70;;;25.40;33.70;;;;;;5072040;28;20080;-62
2023/05/30 11:00:09;;;;;;;5.40;1.95;;;25.40;33.30;;;;;;5053505;28;20237;-62
2023/05/30 11:02:55;;;;;;;5.70;2.00;;;25.50;33.30;;;;;;5077032;28;20044;-62
2023/05/30 11:05:30;;;;;;;8.18;3.58;;;25.50;33.90;;;;;;5073760;28;20059;-63
2023/05/30 11:07:58;;;;;;;6.35;2.38;;;25.50;34.50;;;;;;5077257;28;20072;-62
2023/05/30 11:10:26;;;;;;;5.32;2.05;;;25.50;33.40;;;;;;5069106;28;20106;-62
2023/05/30 11:13:06;;;;;;;6.32;2.25;;;25.50;33.90;;;;;;5077417;28;20506;-61
2023/05/30 11:15:49;;;;;;;5.65;1.70;;;25.50;34.40;;;;;;5072865;28;20496;-62
2023/05/30 11:18:17;;;;;;;4.82;2.17;;;25.60;34.50;;;;;;5071562;28;20479;-62
2023/05/30 11:20:54;;;;;;;5.15;1.80;;;25.60;33.50;;;;;;5076528;28;20051;-63
2023/05/30 11:23:23;;;;;;;4.72;2.15;;;25.60;33.30;;;;;;5074043;28;20085;-62
2023/05/30 11:25:53;;;;;;;3.63;1.77;;;25.70;33.10;;;;;;5071419;28;20519;-62
2023/05/30 11:28:34;;;;;;;5.85;1.83;;;25.80;33.80;;;;;;5075696;28;20060;-62
2023/05/30 11:31:19;;;;;;;4.55;1.58;;;25.80;34.80;;;;;;5073811;28;20177;-61
2023/05/30 11:33:51;;;;;;;5.05;1.63;;;25.80;33.70;;;;;;5067874;28;20135;-62
2023/05/30 11:36:19;;;;;;;4.80;1.58;;;25.80;33.30;;;;;;5072302;28;20048;-61
2023/05/30 11:38:47;;;;;;;5.50;1.90;;;25.90;33.60;;;;;;5072101;28;20102;-62
2023/05/30 11:41:16;;;;;;;4.55;1.73;;;25.90;33.30;;;;;;5068602;28;20167;-61
2023/05/30 11:43:43;;;;;;;6.03;1.73;;;25.90;33.30;;;;;;5076517;28;20052;-61
2023/05/30 11:46:11;;;;;;;9.18;4.68;;;25.80;33.30;;;;;;5073129;28;20059;-62
2023/05/30 11:48:44;;;;;;;7.22;3.47;;;25.70;33.30;;;;;;5074014;28;20048;-62
2023/05/30 11:51:12;;;;;;;8.45;2.53;;;25.80;33.30;;;;;;5065548;28;20097;-61
2023/05/30 11:53:46;;;;;;;5.50;2.28;;;25.90;33.80;;;;;;5078791;28;20127;-61
2023/05/30 11:56:33;;;;;;;6.00;2.20;;;25.90;33.40;;;;;;5066542;28;20044;-62
2023/05/30 11:59:01;;;;;;;5.30;2.03;;;25.90;32.80;;;;;;5068505;28;20053;-63
2023/05/30 12:01:32;;;;;;;4.43;1.70;;;25.80;33.40;;;;;;5056506;28;20579;-62
2023/05/30 12:03:59;;;;;;;4.13;1.67;;;25.70;33.00;;;;;;5048081;28;20052;-61
2023/05/30 12:06:31;;;;;;;7.88;3.25;;;25.70;32.50;;;;;;5057605;28;20043;-61
2023/05/30 12:09:00;;;;;;;7.05;2.67;;;25.80;32.20;;;;;;5060981;28;20075;-61
2023/05/30 12:11:27;;;;;;;7.10;2.20;;;25.70;32.20;;;;;;5053927;28;20120;-62
2023/05/30 12:13:59;;;;;;;7.70;2.20;;;25.80;32.30;;;;;;5069025;28;20037;-61
2023/05/30 12:16:26;;;;;;;6.57;2.10;;;25.80;32.40;;;;;;5072831;28;20483;-61
2023/05/30 12:18:55;;;;;;;4.10;1.58;;;25.80;33.10;;;;;;5066945;28;20496;-62
2023/05/30 12:21:22;;;;;;;4.55;1.58;;;25.80;32.80;;;;;;5073910;28;20056;-60
2023/05/30 12:23:49;;;;;;;4.53;1.75;;;25.80;32.40;;;;;;5074540;28;20056;-61
2023/05/30 12:26:18;;;;;;;3.88;2.15;;;25.60;32.40;;;;;;5055157;28;20209;-61
2023/05/30 12:28:45;;;;;;;5.50;2.37;;;25.70;32.20;;;;;;5073576;28;20056;-62
2023/05/30 12:31:22;;;;;;;8.20;2.03;;;25.70;32.30;;;;;;5065347;28;20430;-62
2023/05/30 12:33:49;;;;;;;6.70;2.10;;;25.70;32.70;;;;;;5072336;28;20048;-61
2023/05/30 12:36:17;;;;;;;5.85;1.92;;;25.70;32.40;;;;;;5073023;28;20048;-60
2023/05/30 12:38:44;;;;;;;5.25;2.28;;;25.70;32.40;;;;;;5066245;28;20201;-61
2023/05/30 12:41:11;;;;;;;4.50;1.98;;;25.70;32.30;;;;;;5069331;28;20155;-62
2023/05/30 12:43:38;;;;;;;4.55;1.80;;;25.70;33.00;;;;;;5077097;28;20063;-63
2023/05/30 12:46:09;;;;;;;4.78;1.77;;;25.70;33.00;;;;;;5067716;28;20048;-61
2023/05/30 12:48:36;;;;;;;5.57;1.70;;;25.60;33.40;;;;;;5073730;28;20048;-63
2023/05/30 12:51:03;;;;;;;6.45;1.88;;;25.70;33.70;;;;;;5074351;28;20067;-62
2023/05/30 12:53:31;;;;;;;5.82;1.70;;;25.60;33.30;;;;;;5072390;28;20040;-61
2023/05/30 12:55:58;;;;;;;4.35;1.52;;;25.60;33.30;;;;;;5070666;28;20118;-61